Time;durP1;ratioP1;P1;durP2;ratioP2;P2;SDS_P1;SDS_P2;PMS_P1;PMS_P2;Temp;Humidity;BMP_temperature;BMP_pressure;BME280_temperature;BME280_humidity;BME280_pressure;Samples;Min_cycle;Max_cycle;Signal;HPM_P1;HPM_P2
2021/11/23 00:01:34;;;;;;;8.98;2.05;;;;;22.60;99821.00;;;;5104064;28;20509;-78
2021/11/23 00:04:04;;;;;;;2.28;2.08;;;;;22.60;99820.00;;;;5107449;28;20477;-78
2021/11/23 00:06:35;;;;;;;0.70;0.22;;;;;22.40;99821.00;;;;5107581;28;20058;-79
2021/11/23 00:09:05;;;;;;;0.55;0.22;;;;;22.40;99806.00;;;;5107459;28;20043;-80
2021/11/23 00:11:35;;;;;;;9.55;1.80;;;;;22.50;99821.00;;;;5107501;28;20047;-79
2021/11/23 00:14:05;;;;;;;0.35;0.30;;;;;22.50;99809.00;;;;5089203;28;20039;-79
2021/11/23 00:16:34;;;;;;;1.38;1.23;;;;;22.40;99818.00;;;;5107434;28;20054;-79
2021/11/23 00:19:04;;;;;;;0.10;0.10;;;;;22.40;99818.00;;;;5088475;28;20128;-82
2021/11/23 00:21:33;;;;;;;2.83;1.45;;;;;22.40;99827.00;;;;5106472;28;20095;-80
2021/11/23 00:24:03;;;;;;;1.58;1.33;;;;;22.50;99809.00;;;;5106343;28;20051;-78
2021/11/23 00:26:32;;;;;;;3.08;1.52;;;;;22.50;99818.00;;;;5088749;28;20048;-80
2021/11/23 00:29:01;;;;;;;5.80;1.20;;;;;22.40;99826.00;;;;5105978;28;20051;-81
2021/11/23 00:31:30;;;;;;;1.67;1.55;;;;;22.40;99822.00;;;;5087898;28;20051;-80
2021/11/23 00:34:00;;;;;;;4.85;0.93;;;;;22.30;99819.00;;;;5106170;28;20120;-80
2021/11/23 00:36:30;;;;;;;0.32;0.10;;;;;22.20;99818.00;;;;5106511;28;20036;-80
2021/11/23 00:39:00;;;;;;;0.00;0.00;;;;;22.10;99826.00;;;;5107031;28;20055;-79
2021/11/23 00:41:29;;;;;;;0.00;0.00;;;;;22.20;99837.00;;;;5091443;28;20064;-82
2021/11/23 00:43:58;;;;;;;4.47;1.98;;;;;22.10;99827.00;;;;5090837;28;20051;-81
2021/11/23 00:46:28;;;;;;;0.20;0.17;;;;;22.10;99830.00;;;;5091674;28;20035;-80
2021/11/23 00:48:57;;;;;;;0.35;0.35;;;;;22.10;99831.00;;;;5110136;28;20050;-81
2021/11/23 00:51:26;;;;;;;0.80;0.80;;;;;22.10;99824.00;;;;5091661;28;20048;-80
2021/11/23 00:53:55;;;;;;;0.00;0.00;;;;;21.90;99840.00;;;;5091868;28;20051;-82
2021/11/23 00:56:26;;;;;;;0.25;0.25;;;;;21.80;99821.00;;;;5110057;28;20096;-82
2021/11/23 00:58:55;;;;;;;10.05;0.88;;;;;21.80;99833.00;;;;5109777;28;20050;-79
2021/11/23 01:01:25;;;;;;;1.38;0.75;;;;;21.90;99830.00;;;;5109968;28;20517;-82
2021/11/23 01:03:54;;;;;;;10.75;1.77;;;;;21.90;99822.00;;;;5110475;28;20035;-82
2021/11/23 01:06:24;;;;;;;0.38;0.35;;;;;21.90;99822.00;;;;5108939;28;21050;-80
2021/11/23 01:08:53;;;;;;;2.88;1.40;;;;;21.90;99830.00;;;;5111955;28;20051;-81
2021/11/23 01:11:23;;;;;;;1.80;0.68;;;;;21.80;99832.00;;;;5124874;28;20040;-81
2021/11/23 01:13:52;;;;;;;0.00;0.00;;;;;21.80;99834.00;;;;5109697;28;20052;-81
2021/11/23 01:16:21;;;;;;;0.00;0.00;;;;;21.70;99831.00;;;;5109438;28;20092;-82
2021/11/23 01:18:51;;;;;;;4.97;1.20;;;;;21.70;99826.00;;;;5109936;28;20849;-81
2021/11/23 01:21:21;;;;;;;1.60;0.68;;;;;21.70;99829.00;;;;5109550;28;20552;-83
2021/11/23 01:23:50;;;;;;;0.68;0.30;;;;;21.60;99826.00;;;;5091493;28;20545;-82
2021/11/23 01:26:20;;;;;;;0.70;0.70;;;;;21.70;99812.00;;;;5109536;28;20055;-84
2021/11/23 01:28:49;;;;;;;1.65;0.75;;;;;21.70;99825.00;;;;5110146;28;20411;-81
2021/11/23 01:31:19;;;;;;;1.98;0.75;;;;;21.70;99820.00;;;;5109229;28;20078;-82
2021/11/23 01:33:49;;;;;;;2.38;1.48;;;;;21.70;99833.00;;;;5109275;28;20063;-80
2021/11/23 01:36:18;;;;;;;0.60;0.60;;;;;21.70;99812.00;;;;5111701;28;20047;-83
2021/11/23 01:38:48;;;;;;;1.42;1.33;;;;;21.70;99817.00;;;;5094911;28;20043;-83
2021/11/23 01:41:17;;;;;;;1.42;1.33;;;;;21.80;99813.00;;;;5117164;28;20040;-81
2021/11/23 01:43:47;;;;;;;0.10;0.10;;;;;21.80;99819.00;;;;5098993;28;20090;-81
2021/11/23 01:46:17;;;;;;;0.00;0.00;;;;;21.80;99810.00;;;;5115264;28;20120;-81
2021/11/23 01:48:46;;;;;;;0.63;0.60;;;;;21.80;99832.00;;;;5119998;28;20062;-81
2021/11/23 01:51:15;;;;;;;0.85;0.85;;;;;21.90;99822.00;;;;5115232;28;20079;-82
2021/11/23 01:53:45;;;;;;;0.47;0.47;;;;;21.90;99811.00;;;;5109618;28;20092;-82
2021/11/23 01:56:14;;;;;;;1.10;0.60;;;;;22.00;99832.00;;;;5091169;28;20460;-82
2021/11/23 01:58:44;;;;;;;0.00;0.00;;;;;22.00;99829.00;;;;5109606;28;20051;-82
2021/11/23 02:01:15;;;;;;;0.10;0.10;;;;;22.00;99827.00;;;;5091715;28;20342;-84
2021/11/23 02:03:45;;;;;;;4.47;0.88;;;;;22.00;99812.00;;;;5091208;28;20566;-82
2021/11/23 02:06:14;;;;;;;0.63;0.25;;;;;22.00;99819.00;;;;5108850;28;20040;-83
2021/11/23 02:08:44;;;;;;;0.00;0.00;;;;;22.00;99804.00;;;;5108992;28;20050;-84
2021/11/23 02:11:13;;;;;;;0.25;0.25;;;;;22.00;99806.00;;;;5109368;28;20055;-84
2021/11/23 02:13:43;;;;;;;0.15;0.15;;;;;22.00;99822.00;;;;5109862;28;20036;-81
2021/11/23 02:16:14;;;;;;;0.00;0.00;;;;;22.00;99828.00;;;;5108665;28;20168;-81
2021/11/23 02:18:43;;;;;;;0.20;0.20;;;;;22.00;99826.00;;;;5108810;28;20054;-84
2021/11/23 02:21:12;;;;;;;0.65;0.40;;;;;22.00;99821.00;;;;5091274;28;20052;-79
2021/11/23 02:23:42;;;;;;;0.55;0.55;;;;;21.90;99810.00;;;;5108812;28;20044;-84
2021/11/23 02:26:11;;;;;;;0.00;0.00;;;;;22.00;99818.00;;;;5090146;28;20093;-83
2021/11/23 02:28:41;;;;;;;0.00;0.00;;;;;21.80;99823.00;;;;5090615;28;20047;-81
2021/11/23 02:31:10;;;;;;;0.75;0.75;;;;;21.90;99811.00;;;;5090739;28;20059;-82
2021/11/23 02:33:40;;;;;;;0.20;0.20;;;;;21.90;99805.00;;;;5089813;28;20064;-81
2021/11/23 02:36:11;;;;;;;0.00;0.00;;;;;21.80;99801.00;;;;5108379;28;20051;-84
2021/11/23 02:38:40;;;;;;;0.10;0.10;;;;;21.70;99825.00;;;;5108082;28;20101;-84
2021/11/23 02:41:13;;;;;;;0.90;0.55;;;;;21.70;99821.00;;;;5108489;28;20132;-83
2021/11/23 02:43:48;;;;;;;0.00;0.00;;;;;21.80;99801.00;;;;5108234;28;20036;-82
2021/11/23 02:46:19;;;;;;;0.35;0.35;;;;;21.80;99826.00;;;;5108226;28;20459;-83
2021/11/23 02:48:49;;;;;;;0.00;0.00;;;;;21.70;99799.00;;;;5108400;28;20045;-83
2021/11/23 02:51:18;;;;;;;0.03;0.03;;;;;21.70;99806.00;;;;5108703;28;20055;-80
2021/11/23 02:53:50;;;;;;;0.00;0.00;;;;;21.60;99802.00;;;;5107714;28;20071;-85
2021/11/23 02:56:20;;;;;;;0.98;0.47;;;;;21.50;99808.00;;;;5108127;28;20089;-83
2021/11/23 02:58:50;;;;;;;0.00;0.00;;;;;21.50;99803.00;;;;5108437;28;20611;-83
2021/11/23 03:01:27;;;;;;;0.00;0.00;;;;;21.30;99794.00;;;;5089809;28;20460;-82
2021/11/23 03:03:58;;;;;;;0.10;0.10;;;;;21.30;99798.00;;;;5089466;28;20061;-83
2021/11/23 03:06:27;;;;;;;0.00;0.00;;;;;21.30;99811.00;;;;5108179;28;20062;-81
2021/11/23 03:08:56;;;;;;;0.17;0.10;;;;;21.10;99802.00;;;;5107816;28;20051;-82
2021/11/23 03:11:26;;;;;;;0.00;0.00;;;;;21.10;99800.00;;;;5108100;28;20414;-81
2021/11/23 03:13:56;;;;;;;0.40;0.40;;;;;21.10;99797.00;;;;5090841;28;20051;-81
2021/11/23 03:16:25;;;;;;;0.30;0.30;;;;;21.10;99798.00;;;;5108068;28;20052;-83
2021/11/23 03:18:55;;;;;;;9.05;8.05;;;;;20.90;99796.00;;;;5072766;28;20077;-84
2021/11/23 03:21:24;;;;;;;0.00;0.00;;;;;20.80;99802.00;;;;5108030;28;20047;-83
2021/11/23 03:23:53;;;;;;;0.55;0.52;;;;;20.60;99789.00;;;;5089606;28;20078;-82
2021/11/23 03:26:24;;;;;;;0.22;0.10;;;;;20.60;99806.00;;;;5089162;28;20101;-83
2021/11/23 03:28:54;;;;;;;0.00;0.00;;;;;20.50;99787.00;;;;5090107;28;20042;-84
2021/11/23 03:31:23;;;;;;;0.03;0.03;;;;;20.40;99800.00;;;;5094696;28;20096;-81
2021/11/23 03:33:53;;;;;;;0.00;0.00;;;;;20.50;99811.00;;;;5123356;28;20588;-81
2021/11/23 03:36:23;;;;;;;0.00;0.00;;;;;20.50;99802.00;;;;5107739;28;20494;-84
2021/11/23 03:38:52;;;;;;;0.65;0.65;;;;;20.40;99795.00;;;;5089824;28;20115;-83
2021/11/23 03:41:22;;;;;;;0.00;0.00;;;;;20.40;99800.00;;;;5107011;28;20044;-83
2021/11/23 03:43:52;;;;;;;0.73;0.63;;;;;20.30;99801.00;;;;5089088;28;20089;-82
2021/11/23 03:46:22;;;;;;;0.10;0.10;;;;;20.20;99788.00;;;;5089689;28;20052;-83
2021/11/23 03:48:52;;;;;;;0.82;0.60;;;;;20.10;99785.00;;;;5106741;28;20048;-82
2021/11/23 03:51:23;;;;;;;0.10;0.10;;;;;20.10;99788.00;;;;5106924;28;20067;-84
2021/11/23 03:53:53;;;;;;;0.22;0.22;;;;;20.00;99788.00;;;;5107117;28;20096;-83
2021/11/23 03:56:22;;;;;;;0.32;0.32;;;;;20.00;99798.00;;;;5089543;28;20044;-85
2021/11/23 03:58:52;;;;;;;0.00;0.00;;;;;19.90;99791.00;;;;5088924;28;20104;-81
2021/11/23 04:01:21;;;;;;;0.00;0.00;;;;;19.90;99789.00;;;;5106917;28;20119;-82
2021/11/23 04:03:51;;;;;;;0.00;0.00;;;;;19.80;99794.00;;;;5107252;28;20051;-81
2021/11/23 04:06:20;;;;;;;0.00;0.00;;;;;19.80;99791.00;;;;5107501;28;20081;-80
2021/11/23 04:08:49;;;;;;;0.00;0.00;;;;;19.90;99789.00;;;;5106854;28;20456;-84
2021/11/23 04:11:19;;;;;;;0.08;0.08;;;;;19.80;99798.00;;;;5107085;28;20525;-83
2021/11/23 04:13:48;;;;;;;0.00;0.00;;;;;19.70;99778.00;;;;5089428;28;20055;-80
2021/11/23 04:16:17;;;;;;;0.20;0.20;;;;;19.70;99781.00;;;;5109911;28;20682;-80
2021/11/23 04:18:47;;;;;;;0.68;0.68;;;;;19.70;99788.00;;;;5111381;28;20464;-83
2021/11/23 04:21:17;;;;;;;0.00;0.00;;;;;19.60;99790.00;;;;5111014;28;20050;-81
2021/11/23 04:23:47;;;;;;;0.10;0.10;;;;;19.60;99793.00;;;;5110603;28;20043;-81
2021/11/23 04:26:17;;;;;;;0.00;0.00;;;;;19.60;99791.00;;;;5110851;28;20545;-81
2021/11/23 04:28:46;;;;;;;0.03;0.03;;;;;19.70;99800.00;;;;5092155;28;20101;-81
2021/11/23 04:31:15;;;;;;;0.00;0.00;;;;;19.60;99788.00;;;;5111281;28;20052;-81
2021/11/23 04:33:45;;;;;;;0.00;0.00;;;;;19.60;99786.00;;;;5075725;28;20056;-84
2021/11/23 04:36:14;;;;;;;0.00;0.00;;;;;19.60;99788.00;;;;5110969;28;20425;-83
2021/11/23 04:38:44;;;;;;;0.00;0.00;;;;;19.50;99792.00;;;;5110240;28;20134;-82
2021/11/23 04:41:13;;;;;;;0.13;0.13;;;;;19.60;99766.00;;;;5110316;28;20056;-82
2021/11/23 04:43:42;;;;;;;0.00;0.00;;;;;19.50;99772.00;;;;5110251;28;20052;-83
2021/11/23 04:46:12;;;;;;;0.00;0.00;;;;;19.50;99784.00;;;;5110025;28;20407;-83
2021/11/23 04:48:42;;;;;;;6.72;0.30;;;;;19.60;99786.00;;;;5110635;28;20056;-82
2021/11/23 04:51:11;;;;;;;0.00;0.00;;;;;19.70;99779.00;;;;5110535;28;20056;-79
2021/11/23 04:53:40;;;;;;;0.10;0.10;;;;;19.60;99775.00;;;;5110171;28;20247;-81
2021/11/23 04:56:10;;;;;;;3.83;1.85;;;;;19.70;99799.00;;;;5110793;28;20054;-80
2021/11/23 04:58:40;;;;;;;0.30;0.22;;;;;19.60;99784.00;;;;5110611;28;20561;-83
2021/11/23 05:01:09;;;;;;;0.85;0.57;;;;;19.60;99779.00;;;;5091066;28;20738;-79
2021/11/23 05:03:39;;;;;;;0.20;0.20;;;;;19.70;99777.00;;;;5110073;28;20708;-82
2021/11/23 05:06:09;;;;;;;1.15;0.73;;;;;19.60;99788.00;;;;5110309;28;20058;-82
2021/11/23 05:08:38;;;;;;;0.00;0.00;;;;;19.60;99791.00;;;;5091404;28;20043;-84
2021/11/23 05:11:09;;;;;;;0.85;0.85;;;;;19.50;99768.00;;;;5091482;28;20043;-81
2021/11/23 05:13:40;;;;;;;1.75;1.20;;;;;19.50;99759.00;;;;5110201;28;20043;-81
2021/11/23 05:16:09;;;;;;;6.13;1.45;;;;;19.40;99771.00;;;;5091689;28;20534;-82
2021/11/23 05:18:39;;;;;;;3.40;2.05;;;;;19.40;99768.00;;;;5110415;28;20146;-81
2021/11/23 05:21:08;;;;;;;0.05;0.05;;;;;19.30;99785.00;;;;5090967;28;20520;-82
2021/11/23 05:23:38;;;;;;;0.00;0.00;;;;;19.30;99771.00;;;;5108576;28;20131;-81
2021/11/23 05:26:07;;;;;;;0.00;0.00;;;;;19.30;99772.00;;;;5109209;28;20108;-83
2021/11/23 05:28:36;;;;;;;0.73;0.45;;;;;19.40;99783.00;;;;5109646;28;20122;-83
2021/11/23 05:31:06;;;;;;;0.65;0.57;;;;;19.40;99780.00;;;;5091370;28;20501;-81
2021/11/23 05:33:36;;;;;;;1.55;1.20;;;;;19.30;99785.00;;;;5109146;28;20048;-82
2021/11/23 05:36:05;;;;;;;1.65;0.73;;;;;19.30;99785.00;;;;5109360;28;20506;-79
2021/11/23 05:38:34;;;;;;;0.52;0.52;;;;;19.30;99795.00;;;;5108644;28;20557;-81
2021/11/23 05:41:04;;;;;;;4.05;1.63;;;;;19.30;99788.00;;;;5109344;28;20050;-81
2021/11/23 05:43:33;;;;;;;1.05;0.95;;;;;19.40;99791.00;;;;5109368;28;20044;-82
2021/11/23 05:46:02;;;;;;;2.03;0.65;;;;;19.40;99796.00;;;;5090739;28;20047;-82
2021/11/23 05:48:32;;;;;;;0.00;0.00;;;;;19.40;99822.00;;;;5109166;28;20055;-83
2021/11/23 05:51:04;;;;;;;1.88;0.63;;;;;19.40;99811.00;;;;5091777;28;20047;-82
2021/11/23 05:53:39;;;;;;;0.50;0.50;;;;;19.40;99822.00;;;;5109235;28;21061;-81
2021/11/23 05:56:09;;;;;;;0.00;0.00;;;;;19.50;99812.00;;;;5109050;28;20131;-81
2021/11/23 05:58:38;;;;;;;2.00;0.32;;;;;19.50;99820.00;;;;5109125;28;20517;-82
2021/11/23 06:01:08;;;;;;;0.63;0.63;;;;;19.50;99805.00;;;;5124181;28;20031;-79
2021/11/23 06:03:37;;;;;;;0.00;0.00;;;;;19.40;99799.00;;;;5114760;28;20067;-83
2021/11/23 06:06:08;;;;;;;0.00;0.00;;;;;19.40;99801.00;;;;5107563;28;20047;-81
2021/11/23 06:08:38;;;;;;;0.20;0.20;;;;;19.30;99798.00;;;;5089666;28;20410;-79
2021/11/23 06:11:07;;;;;;;0.00;0.00;;;;;19.30;99821.00;;;;5108204;28;20044;-79
2021/11/23 06:13:37;;;;;;;0.35;0.35;;;;;19.30;99794.00;;;;5090433;28;20162;-81
2021/11/23 06:16:07;;;;;;;0.38;0.28;;;;;19.20;99805.00;;;;5108878;28;20048;-80
2021/11/23 06:18:36;;;;;;;0.75;0.75;;;;;19.20;99810.00;;;;5108401;28;20046;-82
2021/11/23 06:21:07;;;;;;;0.00;0.00;;;;;19.20;99811.00;;;;5108966;28;20043;-82
2021/11/23 06:23:36;;;;;;;0.00;0.00;;;;;19.10;99810.00;;;;5108431;28;20040;-80
2021/11/23 06:26:07;;;;;;;0.00;0.00;;;;;19.00;99806.00;;;;5089860;28;20062;-80
2021/11/23 06:28:37;;;;;;;0.00;0.00;;;;;18.90;99818.00;;;;5108481;28;20050;-81
2021/11/23 06:31:06;;;;;;;0.00;0.00;;;;;18.80;99807.00;;;;5089980;28;20047;-81
2021/11/23 06:33:35;;;;;;;0.00;0.00;;;;;18.80;99817.00;;;;5108007;28;20630;-80
2021/11/23 06:36:05;;;;;;;0.00;0.00;;;;;18.80;99805.00;;;;5089994;28;20498;-78
2021/11/23 06:38:34;;;;;;;0.00;0.00;;;;;18.80;99820.00;;;;5089348;28;20070;-82
2021/11/23 06:41:04;;;;;;;0.35;0.35;;;;;18.80;99828.00;;;;5089901;28;20043;-81
2021/11/23 06:43:33;;;;;;;2.13;1.40;;;;;19.10;99839.00;;;;5108085;28;20459;-81
2021/11/23 06:46:03;;;;;;;2.38;0.68;;;;;19.00;99836.00;;;;5107950;28;20036;-82
2021/11/23 06:48:32;;;;;;;5.75;2.55;;;;;19.00;99847.00;;;;5107818;28;20079;-80
2021/11/23 06:51:01;;;;;;;18.45;1.90;;;;;19.10;99853.00;;;;5108076;28;20039;-78
2021/11/23 06:53:32;;;;;;;4.30;2.20;;;;;19.30;99872.00;;;;5107696;28;20039;-80
2021/11/23 06:56:01;;;;;;;0.00;0.00;;;;;19.20;99879.00;;;;5089885;28;20448;-81
2021/11/23 06:58:31;;;;;;;3.63;1.85;;;;;19.10;99902.00;;;;5107382;28;20607;-78
2021/11/23 07:01:01;;;;;;;0.63;0.52;;;;;19.30;99897.00;;;;5107958;28;20043;-79
2021/11/23 07:03:31;;;;;;;0.52;0.52;;;;;19.50;99903.00;;;;5089175;28;20043;-79
2021/11/23 07:06:00;;;;;;;2.17;1.40;;;;;19.50;99920.00;;;;5107885;28;20093;-79
2021/11/23 07:08:31;;;;;;;3.05;1.13;;;;;19.90;99935.00;;;;5089783;28;20039;-81
2021/11/23 07:11:00;;;;;;;1.58;1.38;;;;;20.20;99933.00;;;;5107655;28;20066;-79
2021/11/23 07:13:30;;;;;;;1.08;0.98;;;;;20.40;99939.00;;;;5089457;28;20506;-81
2021/11/23 07:15:59;;;;;;;2.13;1.35;;;;;20.50;99944.00;;;;5107349;28;20039;-81
2021/11/23 07:18:28;;;;;;;0.00;0.00;;;;;20.50;99930.00;;;;5107345;28;20405;-82
2021/11/23 07:20:58;;;;;;;2.05;0.38;;;;;20.60;99929.00;;;;5107616;28;20092;-81
2021/11/23 07:23:48;;;;;;;0.00;0.00;;;;;20.60;99939.00;;;;5107540;28;20043;-78
2021/11/23 07:26:17;;;;;;;0.00;0.00;;;;;20.50;99946.00;;;;5089252;28;20047;-80
2021/11/23 07:28:47;;;;;;;0.00;0.00;;;;;20.50;99954.00;;;;5107370;28;20612;-78
2021/11/23 07:31:16;;;;;;;0.00;0.00;;;;;20.40;99938.00;;;;5107531;28;20040;-79
2021/11/23 07:33:47;;;;;;;0.00;0.00;;;;;20.20;99952.00;;;;5089893;28;20498;-81
2021/11/23 07:36:19;;;;;;;0.00;0.00;;;;;20.10;99955.00;;;;5108636;28;20048;-80
2021/11/23 07:38:50;;;;;;;0.13;0.10;;;;;20.00;99963.00;;;;5106983;28;20451;-79
2021/11/23 07:41:20;;;;;;;0.00;0.00;;;;;20.10;99969.00;;;;5107493;28;20047;-80
2021/11/23 07:43:50;;;;;;;0.47;0.47;;;;;20.00;99971.00;;;;5106617;28;20073;-82
2021/11/23 07:46:20;;;;;;;0.00;0.00;;;;;20.00;99984.00;;;;5107453;28;20066;-81
2021/11/23 07:48:49;;;;;;;0.15;0.13;;;;;19.80;99995.00;;;;5090371;28;20539;-80
2021/11/23 07:51:19;;;;;;;0.00;0.00;;;;;19.80;100006.00;;;;5111410;28;20065;-81
2021/11/23 07:53:48;;;;;;;0.00;0.00;;;;;19.80;100019.00;;;;5093258;28;20051;-80
2021/11/23 07:56:19;;;;;;;0.00;0.00;;;;;19.70;100031.00;;;;5111160;28;20055;-80
2021/11/23 07:58:49;;;;;;;;;;;;;19.70;100034.00;;;;5111406;28;20035;-80
2021/11/23 08:01:18;;;;;;;1.08;0.70;;;;;19.70;100040.00;;;;5111983;28;20347;-79
2021/11/23 08:03:48;;;;;;;0.00;0.00;;;;;19.60;100063.00;;;;5093975;28;20055;-79
2021/11/23 08:06:18;;;;;;;1.55;1.27;;;;;19.60;100055.00;;;;5076371;28;20474;-80
2021/11/23 08:08:48;;;;;;;0.95;0.85;;;;;19.50;100082.00;;;;5110906;28;20068;-81
2021/11/23 08:11:17;;;;;;;0.10;0.10;;;;;19.40;100075.00;;;;5111089;28;20039;-79
2021/11/23 08:13:46;;;;;;;0.75;0.75;;;;;19.50;100086.00;;;;5111197;28;20052;-82
2021/11/23 08:16:16;;;;;;;0.15;0.15;;;;;19.40;100094.00;;;;5110778;28;20126;-79
2021/11/23 08:18:45;;;;;;;0.00;0.00;;;;;19.60;100100.00;;;;5110791;28;20054;-80
2021/11/23 08:21:14;;;;;;;0.13;0.13;;;;;19.60;100114.00;;;;5110948;28;20051;-81
2021/11/23 08:23:44;;;;;;;1.45;1.30;;;;;19.90;100121.00;;;;5093092;28;20127;-80
2021/11/23 08:26:14;;;;;;;1.38;1.02;;;;;20.80;100139.00;;;;5111209;28;20082;-80
2021/11/23 08:28:43;;;;;;;0.70;0.68;;;;;20.90;100142.00;;;;5110919;28;20048;-80
2021/11/23 08:31:13;;;;;;;0.00;0.00;;;;;20.90;100153.00;;;;5126041;28;20052;-80
2021/11/23 08:33:46;;;;;;;1.55;0.90;;;;;20.90;100167.00;;;;5117877;28;20086;-81
2021/11/23 08:36:15;;;;;;;1.02;0.85;;;;;21.10;100181.00;;;;5110656;28;20040;-79
2021/11/23 08:38:45;;;;;;;0.38;0.22;;;;;21.30;100184.00;;;;5091901;28;20436;-80
2021/11/23 08:41:15;;;;;;;1.85;1.08;;;;;21.50;100194.00;;;;5109852;28;20051;-79
2021/11/23 08:43:44;;;;;;;0.63;0.63;;;;;21.70;100192.00;;;;5110293;28;20035;-79
2021/11/23 08:46:13;;;;;;;2.25;1.30;;;;;22.00;100192.00;;;;5110284;28;20051;-78
2021/11/23 08:48:43;;;;;;;0.00;0.00;;;;;22.10;100210.00;;;;5110405;28;20047;-79
2021/11/23 08:51:17;;;;;;;0.80;0.20;;;;;21.90;100228.00;;;;5110575;28;20126;-78
2021/11/23 08:53:46;;;;;;;0.32;0.22;;;;;21.90;100227.00;;;;5092599;28;20051;-81
2021/11/23 08:56:16;;;;;;;0.30;0.30;;;;;21.80;100227.00;;;;5110126;28;20039;-79
2021/11/23 08:58:49;;;;;;;0.00;0.00;;;;;21.80;100234.00;;;;5091146;28;20627;-80
2021/11/23 09:01:24;;;;;;;0.00;0.00;;;;;21.90;100249.00;;;;5090922;28;20444;-80
2021/11/23 09:03:55;;;;;;;1.02;0.30;;;;;22.10;100242.00;;;;5091617;28;20066;-81
2021/11/23 09:06:26;;;;;;;0.10;0.00;;;;;22.20;100256.00;;;;5110233;28;20092;-80
2021/11/23 09:08:58;;;;;;;0.10;0.10;;;;;22.20;100259.00;;;;5109739;28;20039;-80
2021/11/23 09:11:28;;;;;;;0.43;0.22;;;;;22.20;100275.00;;;;5091560;28;20071;-79
2021/11/23 09:13:57;;;;;;;0.10;0.00;;;;;22.10;100273.00;;;;5109649;28;20509;-77
2021/11/23 09:16:27;;;;;;;0.00;0.00;;;;;22.10;100297.00;;;;5109815;28;20055;-80
2021/11/23 09:19:00;;;;;;;0.00;0.00;;;;;22.10;100279.00;;;;5110171;28;20067;-78
2021/11/23 09:21:29;;;;;;;0.00;0.00;;;;;22.20;100298.00;;;;5109701;28;20093;-80
2021/11/23 09:24:00;;;;;;;0.53;0.53;;;;;22.30;100299.00;;;;5109866;28;20040;-79
2021/11/23 09:26:30;;;;;;;0.45;0.45;;;;;22.30;100319.00;;;;5109996;28;20064;-80
2021/11/23 09:28:59;;;;;;;0.22;0.22;;;;;22.30;100343.00;;;;5109523;28;20052;-79
2021/11/23 09:31:28;;;;;;;0.05;0.05;;;;;22.40;100319.00;;;;5109790;28;20040;-83
2021/11/23 09:33:58;;;;;;;0.15;0.15;;;;;22.50;100324.00;;;;5108706;28;20051;-80
2021/11/23 09:36:28;;;;;;;0.30;0.10;;;;;22.30;100354.00;;;;5091258;28;20056;-79
2021/11/23 09:38:57;;;;;;;0.60;0.22;;;;;22.50;100330.00;;;;5109167;28;20530;-81
2021/11/23 09:41:29;;;;;;;0.00;0.00;;;;;22.80;100339.00;;;;5108865;28;20101;-79
2021/11/23 09:43:58;;;;;;;0.00;0.00;;;;;23.20;100331.00;;;;5109343;28;20040;-80
2021/11/23 09:46:32;;;;;;;0.90;0.32;;;;;23.00;100359.00;;;;5109792;28;20035;-79
2021/11/23 09:49:04;;;;;;;0.32;0.30;;;;;22.70;100383.00;;;;5109033;28;20035;-80
2021/11/23 09:51:35;;;;;;;0.00;0.00;;;;;22.40;100394.00;;;;5109197;28;20039;-82
2021/11/23 09:54:08;;;;;;;0.35;0.10;;;;;22.30;100413.00;;;;5109207;28;20462;-79
2021/11/23 09:56:39;;;;;;;0.00;0.00;;;;;22.30;100408.00;;;;5109002;28;20119;-82
2021/11/23 09:59:11;;;;;;;0.00;0.00;;;;;22.30;100419.00;;;;5109143;28;20047;-80
2021/11/23 10:01:47;;;;;;;0.60;0.03;;;;;22.30;100419.00;;;;5108828;28;20555;-82
2021/11/23 10:04:19;;;;;;;0.20;0.20;;;;;22.40;100410.00;;;;5090524;28;20126;-80
2021/11/23 10:07:14;;;;;;;0.00;0.00;;;;;22.50;100418.00;;;;5109389;28;20093;-80
2021/11/23 10:09:45;;;;;;;0.00;0.00;;;;;22.50;100422.00;;;;5106853;28;20059;-81
2021/11/23 10:12:15;;;;;;;0.00;0.00;;;;;22.50;100433.00;;;;5107342;28;20039;-81
2021/11/23 10:15:17;;;;;;;0.00;0.00;;;;;22.60;100442.00;;;;5108006;28;20058;-80
2021/11/23 10:17:52;;;;;;;0.82;0.68;;;;;22.90;100437.00;;;;5106282;28;20526;-81
2021/11/23 10:20:34;;;;;;;0.00;0.00;;;;;23.20;100438.00;;;;5089667;28;20043;-80
2021/11/23 10:23:18;;;;;;;0.52;0.20;;;;;23.30;100451.00;;;;5107868;28;20531;-82
2021/11/23 10:25:51;;;;;;;0.00;0.00;;;;;23.30;100416.00;;;;5108740;28;20513;-84
2021/11/23 10:28:24;;;;;;;0.00;0.00;;;;;24.10;100440.00;;;;5108374;28;20039;-81
2021/11/23 10:30:55;;;;;;;0.00;0.00;;;;;24.30;100460.00;;;;5090123;28;20048;-82
2021/11/23 10:33:26;;;;;;;0.00;0.00;;;;;24.10;100456.00;;;;5109304;28;20066;-83
2021/11/23 10:35:58;;;;;;;0.00;0.00;;;;;23.80;100469.00;;;;5109608;28;20058;-84
2021/11/23 10:38:28;;;;;;;2.83;0.43;;;;;23.50;100477.00;;;;5108778;28;20047;-82
2021/11/23 10:40:58;;;;;;;0.00;0.00;;;;;23.30;100487.00;;;;5108189;28;20043;-83
2021/11/23 10:43:29;;;;;;;0.00;0.00;;;;;23.20;100475.00;;;;5108132;28;20039;-82
2021/11/23 10:45:58;;;;;;;0.00;0.00;;;;;23.10;100493.00;;;;5108039;28;21141;-80
2021/11/23 10:48:28;;;;;;;4.57;0.77;;;;;23.20;100491.00;;;;5106203;28;20859;-83
2021/11/23 10:51:01;;;;;;;0.00;0.00;;;;;23.50;100507.00;;;;5107689;28;20078;-82
2021/11/23 10:53:31;;;;;;;3.00;0.65;;;;;23.60;100482.00;;;;5089772;28;20518;-79
2021/11/23 10:56:15;;;;;;;1.00;0.30;;;;;26.30;100331.00;;;;5107884;28;20043;-82
2021/11/23 10:58:47;;;;;;;0.10;0.00;;;;;26.50;100475.00;;;;5122479;28;20070;-83
2021/11/23 11:01:18;;;;;;;2.08;0.55;;;;;28.10;100473.00;;;;5120482;28;20039;-82
2021/11/23 11:03:49;;;;;;;2.80;0.93;;;;;25.80;100386.00;;;;5108554;28;20056;-80
2021/11/23 11:06:20;;;;;;;0.32;0.10;;;;;28.00;100475.00;;;;5108078;28;20051;-81
2021/11/23 11:08:49;;;;;;;0.00;0.00;;;;;26.60;100469.00;;;;5107352;28;20494;-81
2021/11/23 11:11:18;;;;;;;0.00;0.00;;;;;26.50;100507.00;;;;5107611;28;20039;-82
2021/11/23 11:13:53;;;;;;;0.75;0.10;;;;;25.60;100519.00;;;;5107844;28;20152;-80
2021/11/23 11:16:23;;;;;;;0.00;0.00;;;;;25.30;100519.00;;;;5107887;28;20046;-82
2021/11/23 11:19:11;;;;;;;0.30;0.03;;;;;25.00;100510.00;;;;5111263;28;20110;-81
2021/11/23 11:21:48;;;;;;;0.00;0.00;;;;;24.90;100520.00;;;;5106057;28;20430;-82
2021/11/23 11:24:43;;;;;;;0.00;0.00;;;;;24.90;100522.00;;;;5104902;27;20061;-83
2021/11/23 11:27:47;;;;;;;0.15;0.15;;;;;25.50;100515.00;;;;5107186;28;20792;-82
2021/11/23 11:30:39;;;;;;;0.00;0.00;;;;;26.50;100495.00;;;;5075459;28;20059;-80
2021/11/23 11:33:09;;;;;;;1.15;0.68;;;;;25.40;100531.00;;;;5107486;28;20135;-79
2021/11/23 11:35:46;;;;;;;2.20;0.85;;;;;24.70;100539.00;;;;5106225;28;21316;-81
2021/11/23 11:38:28;;;;;;;11.95;0.55;;;;;24.50;100534.00;;;;5107273;28;20104;-81
2021/11/23 11:41:07;;;;;;;0.73;0.50;;;;;24.60;100536.00;;;;5106921;28;20070;-80
2021/11/23 11:43:42;;;;;;;0.00;0.00;;;;;24.50;100538.00;;;;5107638;28;20044;-82
2021/11/23 11:46:31;;;;;;;0.00;0.00;;;;;24.40;100529.00;;;;5089111;28;20039;-82
2021/11/23 11:49:02;;;;;;;3.20;1.25;;;;;24.50;100527.00;;;;5107295;28;20505;-82
2021/11/23 11:51:34;;;;;;;0.22;0.10;;;;;24.30;100549.00;;;;5106847;28;20443;-81
2021/11/23 11:54:20;;;;;;;0.17;0.17;;;;;24.20;100527.00;;;;5107319;28;20043;-80
2021/11/23 11:56:51;;;;;;;3.40;0.40;;;;;24.50;100533.00;;;;5107544;28;20413;-80
2021/11/23 11:59:30;;;;;;;0.00;0.00;;;;;24.70;100528.00;;;;5107767;28;20054;-84
2021/11/23 12:02:09;;;;;;;0.00;0.00;;;;;25.10;100529.00;;;;5089038;28;20040;-81
2021/11/23 12:04:59;;;;;;;0.52;0.30;;;;;25.50;100525.00;;;;5107457;28;20047;-80
2021/11/23 12:07:46;;;;;;;0.08;0.08;;;;;25.10;100541.00;;;;5106746;28;20061;-80
2021/11/23 12:10:25;;;;;;;0.10;0.10;;;;;24.80;100565.00;;;;5106733;28;20067;-81
2021/11/23 12:12:57;;;;;;;0.00;0.00;;;;;24.40;100568.00;;;;5106914;28;20063;-79
2021/11/23 12:15:57;;;;;;;0.00;0.00;;;;;24.00;100594.00;;;;5107030;28;20430;-83
2021/11/23 12:18:53;;;;;;;0.00;0.00;;;;;23.80;100583.00;;;;5107151;28;20039;-81
2021/11/23 12:21:27;;;;;;;0.00;0.00;;;;;23.50;100594.00;;;;5107421;28;20980;-82
2021/11/23 12:24:04;;;;;;;0.00;0.00;;;;;23.50;100594.00;;;;5106525;28;20530;-81
2021/11/23 12:26:37;;;;;;;0.38;0.10;;;;;23.60;100575.00;;;;5106558;28;20048;-81
2021/11/23 12:29:16;;;;;;;0.00;0.00;;;;;23.70;100586.00;;;;5107046;28;20523;-82
2021/11/23 12:31:48;;;;;;;0.00;0.00;;;;;23.90;100583.00;;;;5106597;28;20051;-81
2021/11/23 12:34:19;;;;;;;0.00;0.00;;;;;24.10;100593.00;;;;5106390;28;20121;-82